createdAt,value
2019-02-04T00:00:42.326Z,-1.80
2019-02-04T00:05:47.327Z,-1.80
2019-02-04T00:10:52.308Z,-1.80
2019-02-04T00:15:57.303Z,-1.70
2019-02-04T00:21:02.585Z,-1.80
2019-02-04T00:26:07.628Z,-1.80
2019-02-04T00:31:12.619Z,-1.70
2019-02-04T00:36:17.626Z,-1.70
2019-02-04T00:41:22.632Z,-1.60
2019-02-04T00:46:27.655Z,-1.60
2019-02-04T00:51:32.674Z,-1.50
2019-02-04T00:56:37.635Z,-1.50
2019-02-04T01:01:42.730Z,-1.50
2019-02-04T01:06:47.709Z,-1.50
2019-02-04T01:11:52.695Z,-1.50
2019-02-04T01:17:03.600Z,-1.60
2019-02-04T01:22:04.374Z,-1.60
2019-02-04T01:27:09.372Z,-1.60
2019-02-04T01:32:14.355Z,-1.50
2019-02-04T01:37:19.352Z,-1.40
2019-02-04T01:42:24.378Z,-1.30
2019-02-04T01:47:29.357Z,-1.10
2019-02-04T01:52:34.351Z,-0.90
2019-02-04T01:57:39.450Z,-0.90
2019-02-04T02:02:44.483Z,-0.90
2019-02-04T02:07:49.870Z,-0.90
2019-02-04T02:12:55.196Z,-0.80
2019-02-04T02:18:00.209Z,-0.70
2019-02-04T02:23:05.359Z,-0.60
2019-02-04T02:28:10.371Z,-0.40
2019-02-04T02:33:15.388Z,-0.30
2019-02-04T02:38:20.383Z,-0.20
2019-02-04T02:43:25.383Z,-0.20
2019-02-04T02:48:30.397Z,-0.20
2019-02-04T02:53:35.456Z,-0.20
2019-02-04T02:58:40.447Z,-0.20
2019-02-04T03:03:45.451Z,-0.10
2019-02-04T03:08:50.444Z,0.00
2019-02-04T03:13:55.431Z,0.00
2019-02-04T03:19:00.429Z,0.00
2019-02-04T03:24:05.420Z,0.10
2019-02-04T03:29:10.605Z,0.10
2019-02-04T03:34:15.656Z,0.10
2019-02-04T03:39:20.654Z,0.00
2019-02-04T03:44:25.675Z,-0.10
2019-02-04T03:49:30.789Z,-0.20
2019-02-04T03:54:35.770Z,-0.40
2019-02-04T03:59:40.780Z,-0.50
2019-02-04T04:04:46.187Z,-0.50
2019-02-04T04:09:51.198Z,-0.60
2019-02-04T04:14:56.771Z,-0.60
2019-02-04T04:20:01.768Z,-0.70
2019-02-04T04:25:08.130Z,-0.70
2019-02-04T04:30:21.580Z,-0.70
2019-02-04T04:35:26.546Z,-0.80
2019-02-04T04:40:31.584Z,-0.80
2019-02-04T04:45:36.987Z,-0.70
2019-02-04T04:50:42.005Z,-0.70
2019-02-04T04:55:47.007Z,-0.70
2019-02-04T05:00:52.003Z,-0.60
2019-02-04T05:05:56.995Z,-0.60
2019-02-04T05:11:02.296Z,-0.50
2019-02-04T05:16:07.280Z,-0.40
2019-02-04T05:21:12.279Z,-0.40
2019-02-04T05:26:17.320Z,-0.40
2019-02-04T05:31:22.337Z,-0.40
2019-02-04T05:36:27.339Z,-0.40
2019-02-04T05:41:32.335Z,-0.40
2019-02-04T05:46:37.369Z,-0.40
2019-02-04T05:51:42.388Z,-0.40
2019-02-04T05:56:47.811Z,-0.50
2019-02-04T06:01:52.809Z,-0.50
2019-02-04T06:06:57.790Z,-0.50
2019-02-04T06:12:02.805Z,-0.40
2019-02-04T06:17:07.808Z,-0.50
2019-02-04T06:22:12.836Z,-0.50
2019-02-04T06:27:17.824Z,-0.40
2019-02-04T06:32:23.169Z,-0.40
2019-02-04T06:37:28.174Z,-0.30
2019-02-04T06:42:33.174Z,-0.30
2019-02-04T06:47:38.203Z,-0.30
2019-02-04T06:52:43.216Z,-0.30
2019-02-04T06:57:48.237Z,-0.30
2019-02-04T07:02:53.239Z,-0.40
2019-02-04T07:07:58.286Z,-0.40
2019-02-04T07:13:03.256Z,-0.40
2019-02-04T07:18:08.269Z,-0.40
2019-02-04T07:23:13.317Z,-0.30
2019-02-04T07:28:18.667Z,-0.30
2019-02-04T07:33:23.706Z,-0.20
2019-02-04T07:38:28.730Z,-0.10
2019-02-04T07:43:33.900Z,0.00
2019-02-04T07:48:38.892Z,0.10
2019-02-04T07:53:44.199Z,0.10
2019-02-04T07:58:49.294Z,0.20
2019-02-04T08:03:54.631Z,0.20
2019-02-04T08:08:59.623Z,0.30
2019-02-04T08:14:05.091Z,0.30
2019-02-04T08:19:10.471Z,0.30
2019-02-04T08:24:15.459Z,0.30
2019-02-04T08:29:20.442Z,0.40
2019-02-04T08:34:25.446Z,0.40
2019-02-04T08:39:30.455Z,0.40
2019-02-04T08:44:35.419Z,0.60
2019-02-04T08:49:58.031Z,0.60
2019-02-04T08:54:56.716Z,0.70
2019-02-04T09:00:01.743Z,0.70
2019-02-04T09:05:09.554Z,0.90
2019-02-04T09:10:24.934Z,0.90
2019-02-04T09:15:30.339Z,1.00
2019-02-04T09:20:35.344Z,1.10
2019-02-04T09:25:40.299Z,1.30
2019-02-04T09:30:45.276Z,1.30
2019-02-04T09:35:50.304Z,1.40
2019-02-04T09:40:55.302Z,1.50
2019-02-04T09:46:00.274Z,1.60
2019-02-04T09:51:05.982Z,1.70
2019-02-04T09:56:10.950Z,1.80
2019-02-04T10:01:15.936Z,1.80
2019-02-04T10:06:20.986Z,1.90
2019-02-04T10:11:25.956Z,2.00
2019-02-04T10:16:30.916Z,2.00
2019-02-04T10:21:35.901Z,2.00
2019-02-04T10:26:41.397Z,2.10
2019-02-04T10:31:48.118Z,2.10
2019-02-04T10:36:53.103Z,2.20
2019-02-04T10:41:58.091Z,2.30
2019-02-04T10:47:03.285Z,2.40
2019-02-04T10:52:08.271Z,2.50
2019-02-04T10:57:13.319Z,2.60
2019-02-04T11:02:18.283Z,2.70
2019-02-04T11:07:23.355Z,2.80
2019-02-04T11:12:28.355Z,2.80
2019-02-04T11:17:33.322Z,2.90
2019-02-04T11:22:38.271Z,3.00
2019-02-04T11:27:43.680Z,3.00
2019-02-04T11:32:49.179Z,3.10
2019-02-04T11:37:55.437Z,3.20
2019-02-04T11:43:00.356Z,3.30
2019-02-04T11:48:08.525Z,3.30
2019-02-04T11:53:14.316Z,3.40
2019-02-04T11:58:19.258Z,3.40
2019-02-04T12:03:24.219Z,3.50
2019-02-04T12:08:29.198Z,3.50
2019-02-04T12:13:34.146Z,3.60
2019-02-04T12:18:39.110Z,3.60
2019-02-04T12:23:44.094Z,3.70
2019-02-04T12:28:49.056Z,3.60
2019-02-04T12:33:54.006Z,3.70
2019-02-04T12:38:58.972Z,3.80
2019-02-04T12:44:04.003Z,3.80
2019-02-04T12:49:08.959Z,3.70
2019-02-04T12:54:13.905Z,3.70
2019-02-04T12:59:18.859Z,3.70
2019-02-04T13:04:23.807Z,3.60
2019-02-04T13:09:28.767Z,3.60
2019-02-04T13:14:33.713Z,3.50
2019-02-04T13:19:40.087Z,3.50
2019-02-04T13:24:45.063Z,3.50
2019-02-04T13:29:50.318Z,3.50
2019-02-04T13:34:55.284Z,3.50
2019-02-04T13:40:01.386Z,3.40
2019-02-04T13:45:09.455Z,3.40
2019-02-04T13:50:15.037Z,3.40
2019-02-04T13:55:28.807Z,3.40
2019-02-04T14:00:34.110Z,3.40
2019-02-04T14:05:39.102Z,3.40
2019-02-04T14:10:46.259Z,3.50
2019-02-04T14:15:51.312Z,3.50
2019-02-04T14:20:56.267Z,3.50
2019-02-04T14:26:01.442Z,3.50
2019-02-04T14:31:06.403Z,3.50
2019-02-04T14:36:11.435Z,3.40
2019-02-04T14:41:16.450Z,3.50
2019-02-04T14:46:40.723Z,3.50
2019-02-04T14:52:21.860Z,3.50
2019-02-04T14:58:16.190Z,3.40
2019-02-04T15:04:08.615Z,3.40
2019-02-04T15:10:00.633Z,3.40
2019-02-04T15:15:49.635Z,3.40
2019-02-04T15:21:29.223Z,3.50
2019-02-04T15:26:46.301Z,3.40
2019-02-04T15:32:25.151Z,3.30
2019-02-04T15:37:52.743Z,3.30
2019-02-04T15:43:24.828Z,3.20
2019-02-04T15:48:54.801Z,3.30
2019-02-04T15:54:02.294Z,3.20
2019-02-04T15:59:07.272Z,3.20
2019-02-04T16:04:31.062Z,3.10
2019-02-04T16:09:36.042Z,3.00
2019-02-04T16:14:41.015Z,2.90
2019-02-04T16:19:45.984Z,2.80
2019-02-04T16:24:50.967Z,2.80
2019-02-04T16:29:55.939Z,2.70
2019-02-04T16:35:01.775Z,2.60
2019-02-04T16:40:10.126Z,2.50
2019-02-04T16:45:15.347Z,2.50
2019-02-04T16:50:22.518Z,2.50
2019-02-04T16:55:27.480Z,2.50
2019-02-04T17:00:33.008Z,2.50
2019-02-04T17:05:37.996Z,2.50
2019-02-04T17:10:43.084Z,2.40
2019-02-04T17:15:48.111Z,2.40
2019-02-04T17:20:53.118Z,2.40
2019-02-04T17:25:59.774Z,2.40
2019-02-04T17:31:05.143Z,2.40
2019-02-04T17:36:10.184Z,2.30
2019-02-04T17:41:15.295Z,2.30
2019-02-04T17:46:21.785Z,2.30
2019-02-04T17:51:26.786Z,2.40
2019-02-04T17:56:32.451Z,2.40
2019-02-04T18:01:38.690Z,2.40
2019-02-04T18:06:43.699Z,2.40
2019-02-04T18:11:49.934Z,2.40
2019-02-04T18:16:54.977Z,2.40
2019-02-04T18:21:59.967Z,2.40
2019-02-04T18:27:05.091Z,2.40
2019-02-04T18:32:11.935Z,2.40
2019-02-04T18:37:16.969Z,2.40
2019-02-04T18:42:22.253Z,2.30
2019-02-04T18:47:28.824Z,2.30
2019-02-04T18:52:37.141Z,2.30
2019-02-04T18:57:44.599Z,2.30
2019-02-04T19:02:52.158Z,2.30
2019-02-04T19:07:57.734Z,2.30
2019-02-04T19:13:02.747Z,2.30
2019-02-04T19:18:11.680Z,2.20
2019-02-04T19:23:16.723Z,2.20
2019-02-04T19:28:21.804Z,2.20
2019-02-04T19:33:26.781Z,2.20
2019-02-04T19:38:31.839Z,2.20
2019-02-04T19:43:37.051Z,2.20
2019-02-04T19:48:42.048Z,2.10
2019-02-04T19:53:47.092Z,2.10
2019-02-04T19:58:52.078Z,2.10
2019-02-04T20:03:57.091Z,2.10
2019-02-04T20:09:05.204Z,2.10
2019-02-04T20:14:09.777Z,2.10
2019-02-04T20:19:14.900Z,2.10
2019-02-04T20:24:19.975Z,2.10
2019-02-04T20:29:24.934Z,2.00
2019-02-04T20:34:29.994Z,2.00
2019-02-04T20:39:35.010Z,2.00
2019-02-04T20:44:40.064Z,2.00
2019-02-04T20:49:45.073Z,2.00
2019-02-04T20:54:50.454Z,2.10
2019-02-04T20:59:56.360Z,2.10
2019-02-04T21:05:01.287Z,2.10
2019-02-04T21:10:08.256Z,2.10
2019-02-04T21:15:13.687Z,2.20
2019-02-04T21:20:21.317Z,2.30
2019-02-04T21:25:26.359Z,2.30
2019-02-04T21:30:35.714Z,2.30
2019-02-04T21:35:40.770Z,2.30
2019-02-04T21:40:46.152Z,2.30
2019-02-04T21:45:51.163Z,2.30
2019-02-04T21:50:56.251Z,2.30
2019-02-04T21:56:01.264Z,2.30
2019-02-04T22:01:06.723Z,2.30
2019-02-04T22:06:11.719Z,2.40
2019-02-04T22:11:20.022Z,2.40
2019-02-04T22:16:25.027Z,2.40
2019-02-04T22:21:30.401Z,2.50
2019-02-04T22:26:35.761Z,2.40
2019-02-04T22:31:41.051Z,2.50
2019-02-04T22:36:46.377Z,2.50
2019-02-04T22:41:51.661Z,2.50
2019-02-04T22:46:56.646Z,2.50
2019-02-04T22:52:01.695Z,2.40
2019-02-04T22:57:06.680Z,2.40
2019-02-04T23:02:11.849Z,2.50
2019-02-04T23:07:16.954Z,2.50
2019-02-04T23:12:21.979Z,2.50
2019-02-04T23:17:26.987Z,2.50
2019-02-04T23:22:32.026Z,2.50
2019-02-04T23:27:37.444Z,2.50
2019-02-04T23:32:42.444Z,2.50
2019-02-04T23:37:47.502Z,2.50
2019-02-04T23:42:52.580Z,2.60
2019-02-04T23:47:57.556Z,2.60
2019-02-04T23:53:02.670Z,2.60
2019-02-04T23:58:07.686Z,2.60
